createdAt,value
2023-03-28T00:01:56.194Z,14.90
2023-03-28T00:04:27.245Z,15.00
2023-03-28T00:06:58.166Z,15.10
2023-03-28T00:09:30.657Z,15.00
2023-03-28T00:12:01.884Z,15.00
2023-03-28T00:14:36.320Z,14.90
2023-03-28T00:17:09.496Z,14.80
2023-03-28T00:19:42.181Z,14.70
2023-03-28T00:22:13.352Z,14.60
2023-03-28T00:24:45.924Z,14.40
2023-03-28T00:27:16.803Z,14.10
2023-03-28T00:29:47.759Z,14.10
2023-03-28T00:32:18.582Z,14.10
2023-03-28T00:34:49.548Z,14.20
2023-03-28T00:37:20.573Z,14.30
2023-03-28T00:39:54.590Z,14.20
2023-03-28T00:42:26.746Z,14.10
2023-03-28T00:44:58.241Z,13.80
2023-03-28T00:47:41.649Z,13.80
2023-03-28T00:50:20.863Z,13.80
2023-03-28T00:52:56.451Z,13.80
2023-03-28T00:55:34.714Z,13.80
2023-03-28T00:58:08.891Z,13.70
2023-03-28T01:00:43.327Z,13.70
2023-03-28T01:03:14.827Z,13.50
2023-03-28T01:05:54.143Z,13.50
2023-03-28T01:08:27.655Z,13.20
2023-03-28T01:11:02.360Z,13.10
2023-03-28T01:13:37.883Z,13.00
2023-03-28T01:16:10.650Z,13.00
2023-03-28T01:18:42.580Z,12.70
2023-03-28T01:21:50.651Z,12.70
2023-03-28T01:25:01.418Z,12.60
2023-03-28T01:27:42.226Z,12.60
2023-03-28T01:30:54.694Z,12.60
2023-03-28T01:34:09.533Z,12.60
2023-03-28T01:37:00.526Z,12.50
2023-03-28T01:39:43.354Z,12.40
2023-03-28T01:42:25.665Z,12.30
2023-03-28T01:45:06.921Z,12.30
2023-03-28T01:47:43.886Z,12.20
2023-03-28T01:50:20.776Z,12.10
2023-03-28T01:53:01.571Z,12.00
2023-03-28T01:55:41.771Z,11.90
2023-03-28T01:58:21.327Z,11.80
2023-03-28T02:00:57.252Z,11.70
2023-03-28T02:03:33.365Z,11.50
2023-03-28T02:06:08.039Z,11.40
2023-03-28T02:08:43.450Z,11.30
2023-03-28T02:11:14.716Z,11.30
2023-03-28T02:13:51.480Z,11.20
2023-03-28T02:16:25.092Z,11.00
2023-03-28T02:18:59.039Z,10.90
2023-03-28T02:21:33.501Z,10.80
2023-03-28T02:24:06.675Z,10.80
2023-03-28T02:26:38.242Z,10.70
2023-03-28T02:29:11.073Z,10.70
2023-03-28T02:31:43.348Z,10.60
2023-03-28T02:34:14.410Z,10.50
2023-03-28T02:36:57.363Z,10.40
2023-03-28T02:39:49.396Z,10.40
2023-03-28T02:42:52.058Z,10.30
2023-03-28T02:46:08.627Z,10.20
2023-03-28T02:48:55.379Z,10.10
2023-03-28T02:51:35.564Z,10.00
2023-03-28T02:54:20.692Z,10.00
2023-03-28T02:57:02.639Z,9.80
2023-03-28T02:59:38.684Z,9.70
2023-03-28T03:02:10.786Z,9.70
2023-03-28T03:04:41.549Z,9.60
2023-03-28T03:07:13.343Z,9.60
2023-03-28T03:09:46.412Z,9.50
2023-03-28T03:12:20.979Z,9.40
2023-03-28T03:14:52.473Z,9.30
2023-03-28T03:17:24.644Z,9.20
2023-03-28T03:19:56.579Z,9.00
2023-03-28T03:22:28.415Z,9.00
2023-03-28T03:25:05.373Z,8.90
2023-03-28T03:27:40.673Z,8.90
2023-03-28T03:30:14.185Z,8.80
2023-03-28T03:32:46.721Z,8.70
2023-03-28T03:35:18.308Z,8.60
2023-03-28T03:37:50.932Z,8.60
2023-03-28T03:40:23.215Z,8.50
2023-03-28T03:42:56.712Z,8.40
2023-03-28T03:45:28.475Z,8.40
2023-03-28T03:47:59.947Z,8.30
2023-03-28T03:50:31.444Z,8.20
2023-03-28T03:53:03.863Z,8.10
2023-03-28T03:55:35.877Z,8.10
2023-03-28T03:58:09.921Z,8.00
2023-03-28T04:00:42.164Z,8.00
2023-03-28T04:03:25.168Z,8.00
2023-03-28T04:05:59.710Z,7.90
2023-03-28T04:08:31.724Z,7.90
2023-03-28T04:11:02.658Z,7.80
2023-03-28T04:13:39.988Z,7.90
2023-03-28T04:16:13.382Z,7.90
2023-03-28T04:18:51.696Z,7.90
2023-03-28T04:21:26.818Z,7.80
2023-03-28T04:23:59.480Z,7.80
2023-03-28T04:26:32.089Z,7.80
2023-03-28T04:29:07.452Z,7.80
2023-03-28T04:31:40.054Z,7.70
2023-03-28T04:34:11.675Z,7.70
2023-03-28T04:36:43.540Z,7.70
2023-03-28T04:39:15.371Z,7.60
2023-03-28T04:41:47.482Z,7.60
2023-03-28T04:47:02.310Z,7.50
2023-03-28T04:49:39.056Z,7.50
2023-03-28T04:52:39.738Z,7.50
2023-03-28T05:03:46.586Z,7.50
2023-03-28T05:09:10.682Z,7.50
2023-03-28T05:14:30.551Z,7.50
2023-03-28T05:17:05.771Z,7.50
2023-03-28T05:20:05.676Z,7.50
2023-03-28T05:22:44.425Z,7.50
2023-03-28T05:25:18.636Z,7.50
2023-03-28T05:27:50.010Z,7.50
2023-03-28T05:30:25.921Z,7.50
2023-03-28T05:32:57.607Z,7.40
2023-03-28T05:35:35.423Z,7.40
2023-03-28T05:38:09.546Z,7.40
2023-03-28T05:40:41.920Z,7.30
2023-03-28T05:43:17.945Z,7.30
2023-03-28T05:45:50.894Z,7.30
2023-03-28T05:48:22.784Z,7.30
2023-03-28T05:50:59.168Z,7.30
2023-03-28T05:53:30.717Z,7.20
2023-03-28T05:56:02.463Z,7.10
2023-03-28T05:58:33.667Z,7.10
2023-03-28T06:01:05.596Z,7.10
2023-03-28T06:03:40.956Z,7.00
2023-03-28T06:06:14.979Z,7.00
2023-03-28T06:08:46.453Z,7.00
2023-03-28T06:11:18.333Z,6.90
2023-03-28T06:13:51.375Z,6.90
2023-03-28T06:16:31.155Z,6.90
2023-03-28T06:19:16.654Z,6.80
2023-03-28T06:21:51.928Z,6.80
2023-03-28T06:24:23.353Z,6.80
2023-03-28T06:26:55.835Z,6.70
2023-03-28T06:29:26.803Z,6.70
2023-03-28T06:31:58.415Z,6.60
2023-03-28T06:34:29.448Z,6.60
2023-03-28T06:37:03.084Z,6.60
2023-03-28T06:39:34.652Z,6.60
2023-03-28T06:42:06.704Z,6.60
2023-03-28T06:44:38.415Z,6.60
2023-03-28T06:47:09.688Z,6.60
2023-03-28T06:49:41.064Z,6.60
2023-03-28T06:52:14.238Z,6.60
2023-03-28T06:54:48.366Z,6.50
2023-03-28T06:57:19.768Z,6.50
2023-03-28T06:59:52.355Z,6.50
2023-03-28T07:02:23.505Z,6.50
2023-03-28T07:04:56.514Z,6.60
2023-03-28T07:07:30.352Z,6.60
2023-03-28T07:10:01.300Z,6.60
2023-03-28T07:12:32.710Z,6.60
2023-03-28T07:15:03.695Z,6.60
2023-03-28T07:17:35.124Z,6.50
2023-03-28T07:20:06.669Z,6.50
2023-03-28T07:22:40.770Z,6.50
2023-03-28T07:25:12.662Z,6.50
2023-03-28T07:27:45.406Z,6.60
2023-03-28T07:30:18.462Z,6.60
2023-03-28T07:32:59.790Z,6.60
2023-03-28T07:35:42.109Z,6.70
2023-03-28T07:38:16.670Z,6.80
2023-03-28T07:40:48.184Z,6.80
2023-03-28T07:43:20.018Z,6.80
2023-03-28T07:45:51.837Z,6.90
2023-03-28T07:48:23.350Z,6.90
2023-03-28T07:50:56.491Z,6.90
2023-03-28T07:53:30.840Z,6.90
2023-03-28T07:56:02.454Z,7.00
2023-03-28T07:58:33.705Z,7.10
2023-03-28T08:01:09.184Z,7.10
2023-03-28T08:03:41.808Z,7.10
2023-03-28T08:06:30.919Z,7.10
2023-03-28T08:09:04.941Z,7.10
2023-03-28T08:11:36.695Z,7.20
2023-03-28T08:14:10.369Z,7.10
2023-03-28T08:16:41.720Z,7.10
2023-03-28T08:19:12.720Z,7.20
2023-03-28T08:21:43.897Z,7.20
2023-03-28T08:24:25.360Z,7.20
2023-03-28T08:27:00.360Z,7.20
2023-03-28T08:29:32.481Z,7.20
2023-03-28T08:32:04.807Z,7.10
2023-03-28T08:34:36.734Z,7.10
2023-03-28T08:37:09.519Z,7.10
2023-03-28T08:39:43.746Z,7.10
2023-03-28T08:42:45.935Z,7.10
2023-03-28T08:45:30.210Z,7.10
2023-03-28T08:48:10.396Z,7.10
2023-03-28T08:50:46.735Z,7.10
2023-03-28T08:53:27.554Z,7.10
2023-03-28T08:56:03.690Z,7.00
2023-03-28T08:58:44.751Z,7.10
2023-03-28T09:01:18.005Z,7.00
2023-03-28T09:03:51.008Z,7.00
2023-03-28T09:06:30.310Z,7.00
2023-03-28T09:09:35.205Z,7.00
2023-03-28T09:12:29.840Z,7.00
2023-03-28T09:15:24.805Z,7.00
2023-03-28T09:18:09.661Z,7.00
2023-03-28T09:20:47.271Z,7.00
2023-03-28T09:23:35.284Z,7.10
2023-03-28T09:26:11.069Z,7.10
2023-03-28T09:28:52.193Z,7.10
2023-03-28T09:31:28.615Z,7.10
2023-03-28T09:34:01.452Z,7.10
2023-03-28T09:36:48.294Z,7.10
2023-03-28T09:39:34.323Z,7.00
2023-03-28T09:42:10.275Z,7.00
2023-03-28T09:44:54.236Z,6.90
2023-03-28T09:47:27.574Z,6.90
2023-03-28T09:50:11.875Z,6.90
2023-03-28T09:52:44.714Z,6.90
2023-03-28T09:55:22.344Z,6.90
2023-03-28T09:58:12.779Z,6.90
2023-03-28T10:00:49.952Z,6.90
2023-03-28T10:03:33.515Z,6.90
2023-03-28T10:06:20.785Z,7.00
2023-03-28T10:08:52.810Z,6.90
2023-03-28T10:11:24.695Z,6.90
2023-03-28T10:13:57.391Z,6.90
2023-03-28T10:16:33.301Z,6.90
2023-03-28T10:19:04.128Z,6.80
2023-03-28T10:21:35.860Z,6.80
2023-03-28T10:24:09.890Z,6.80
2023-03-28T10:26:41.728Z,6.80
2023-03-28T10:29:14.603Z,6.80
2023-03-28T10:31:52.715Z,6.70
2023-03-28T10:34:31.849Z,6.70
2023-03-28T10:37:03.605Z,6.70
2023-03-28T10:39:37.304Z,6.70
2023-03-28T10:42:08.842Z,6.70
2023-03-28T10:44:42.024Z,6.70
2023-03-28T10:47:21.037Z,6.70
2023-03-28T10:49:57.412Z,6.60
2023-03-28T10:52:36.569Z,6.60
2023-03-28T10:55:16.930Z,6.50
2023-03-28T10:57:59.398Z,6.50
2023-03-28T11:00:35.391Z,6.40
2023-03-28T11:03:19.302Z,6.40
2023-03-28T11:06:08.712Z,6.40
2023-03-28T11:08:54.288Z,6.30
2023-03-28T11:11:50.052Z,6.30
2023-03-28T11:14:29.824Z,6.20
2023-03-28T11:17:08.554Z,6.20
2023-03-28T11:20:09.721Z,6.10
2023-03-28T11:23:04.644Z,6.10
2023-03-28T11:25:46.518Z,6.10
2023-03-28T11:28:31.880Z,6.00
2023-03-28T11:31:05.331Z,6.00
2023-03-28T11:33:43.550Z,6.00
2023-03-28T11:36:20.596Z,6.00
2023-03-28T11:38:54.809Z,6.00
2023-03-28T11:41:30.247Z,6.00
2023-03-28T11:44:05.773Z,6.00
2023-03-28T11:46:41.111Z,6.00
2023-03-28T11:49:20.860Z,6.00
2023-03-28T11:52:01.927Z,6.10
2023-03-28T11:54:39.464Z,6.10
2023-03-28T11:57:17.663Z,6.20
2023-03-28T12:00:00.211Z,6.20
2023-03-28T12:02:44.302Z,6.10
2023-03-28T12:05:25.835Z,6.10
2023-03-28T12:08:09.473Z,6.10
2023-03-28T12:10:41.303Z,6.10
2023-03-28T12:13:18.323Z,6.10
2023-03-28T12:15:54.671Z,6.10
2023-03-28T12:18:33.805Z,6.10
2023-03-28T12:21:11.880Z,6.10
2023-03-28T12:23:57.447Z,6.10
2023-03-28T12:26:36.507Z,6.00
2023-03-28T12:29:16.839Z,6.00
2023-03-28T12:31:53.136Z,6.00
2023-03-28T12:34:31.697Z,6.00
2023-03-28T12:37:13.006Z,6.00
2023-03-28T12:39:50.209Z,5.90
2023-03-28T12:42:24.618Z,5.90
2023-03-28T12:45:00.333Z,5.90
2023-03-28T12:47:34.418Z,5.80
2023-03-28T12:50:11.178Z,5.80
2023-03-28T12:52:45.277Z,5.70
2023-03-28T12:55:52.597Z,5.70
2023-03-28T12:58:30.886Z,5.70
2023-03-28T13:01:28.557Z,5.60
2023-03-28T13:04:14.685Z,5.50
2023-03-28T13:06:54.041Z,5.40
2023-03-28T13:09:45.010Z,5.30
2023-03-28T13:12:31.837Z,5.20
2023-03-28T13:15:05.387Z,5.20
2023-03-28T13:17:40.154Z,5.10
2023-03-28T13:20:28.665Z,5.00
2023-03-28T13:23:03.565Z,5.00
2023-03-28T13:25:35.885Z,5.00
2023-03-28T13:28:31.704Z,4.90
2023-03-28T13:31:16.559Z,4.90
2023-03-28T13:33:53.248Z,4.90
2023-03-28T13:36:31.315Z,4.80
2023-03-28T13:39:23.940Z,4.80
2023-03-28T13:42:01.561Z,4.80
2023-03-28T13:44:51.158Z,4.80
2023-03-28T13:47:30.213Z,4.80
2023-03-28T13:50:06.048Z,4.70
2023-03-28T13:52:38.058Z,4.70
2023-03-28T13:55:22.954Z,4.70
2023-03-28T13:57:55.091Z,4.70
2023-03-28T14:00:30.267Z,4.60
2023-03-28T14:03:06.285Z,4.60
2023-03-28T14:05:38.659Z,4.60
2023-03-28T14:08:26.083Z,4.60
2023-03-28T14:10:58.421Z,4.60
2023-03-28T14:13:32.135Z,4.70
2023-03-28T14:16:05.817Z,4.70
2023-03-28T14:18:39.134Z,4.80
2023-03-28T14:21:11.600Z,4.90
2023-03-28T14:23:45.653Z,5.00
2023-03-28T14:26:22.219Z,5.00
2023-03-28T14:28:55.317Z,5.10
2023-03-28T14:31:35.872Z,5.10
2023-03-28T14:34:21.945Z,5.20
2023-03-28T14:37:01.873Z,5.20
2023-03-28T14:39:35.462Z,5.30
2023-03-28T14:42:09.382Z,5.40
2023-03-28T14:44:44.114Z,5.40
2023-03-28T14:47:23.927Z,5.50
2023-03-28T14:49:56.027Z,5.60
2023-03-28T14:52:35.794Z,5.70
2023-03-28T14:55:07.504Z,5.70
2023-03-28T14:57:39.858Z,5.90
2023-03-28T15:00:17.702Z,6.00
2023-03-28T15:02:51.928Z,6.10
2023-03-28T15:05:25.073Z,6.20
2023-03-28T15:08:02.869Z,6.30
2023-03-28T15:10:35.131Z,6.40
2023-03-28T15:13:09.645Z,6.50
2023-03-28T15:15:45.532Z,6.60
2023-03-28T15:18:20.664Z,6.70
2023-03-28T15:20:55.931Z,6.90
2023-03-28T15:23:30.649Z,7.00
2023-03-28T15:26:04.821Z,7.00
2023-03-28T15:28:37.126Z,7.10
2023-03-28T15:31:10.286Z,7.30
2023-03-28T15:33:42.731Z,7.40
2023-03-28T15:36:19.764Z,7.60
2023-03-28T15:38:54.114Z,7.80
2023-03-28T15:41:30.466Z,8.00
2023-03-28T15:44:14.657Z,8.10
2023-03-28T15:46:46.156Z,8.30
2023-03-28T15:49:19.714Z,8.40
2023-03-28T15:51:54.196Z,8.70
2023-03-28T15:54:31.173Z,8.80
2023-03-28T15:57:05.851Z,9.00
2023-03-28T15:59:40.766Z,9.10
2023-03-28T16:02:34.524Z,9.20
2023-03-28T16:05:12.095Z,9.30
2023-03-28T16:07:53.197Z,9.40
2023-03-28T16:10:26.194Z,9.40
2023-03-28T16:12:58.297Z,9.50
2023-03-28T16:15:29.049Z,9.60
2023-03-28T16:18:00.985Z,9.70
2023-03-28T16:20:33.821Z,9.80
2023-03-28T16:23:05.574Z,10.00
2023-03-28T16:25:38.704Z,10.00
2023-03-28T16:28:09.924Z,10.10
2023-03-28T16:30:42.663Z,10.30
2023-03-28T16:33:14.250Z,10.40
2023-03-28T16:35:46.751Z,10.50
2023-03-28T16:38:18.162Z,10.60
2023-03-28T16:40:49.577Z,10.60
2023-03-28T16:43:20.700Z,10.60
2023-03-28T16:45:53.752Z,10.70
2023-03-28T16:48:25.866Z,10.80
2023-03-28T16:51:05.897Z,10.80
2023-03-28T16:53:37.715Z,10.80
2023-03-28T16:56:12.696Z,10.90
2023-03-28T16:58:43.988Z,11.00
2023-03-28T17:01:20.010Z,11.10
2023-03-28T17:03:53.575Z,11.10
2023-03-28T17:06:28.388Z,11.20
2023-03-28T17:09:00.340Z,11.20
2023-03-28T17:11:32.031Z,11.30
2023-03-28T17:14:06.927Z,11.30
2023-03-28T17:16:40.973Z,11.30
2023-03-28T17:19:11.783Z,11.50
2023-03-28T17:21:44.605Z,11.60
2023-03-28T17:24:16.158Z,11.60
2023-03-28T17:26:47.215Z,11.60
2023-03-28T17:29:19.603Z,11.80
2023-03-28T17:31:50.742Z,12.00
2023-03-28T17:34:21.676Z,12.00
2023-03-28T17:36:55.152Z,12.00
2023-03-28T17:39:26.320Z,12.00
2023-03-28T17:41:58.229Z,12.10
2023-03-28T17:44:29.866Z,12.10
2023-03-28T17:47:02.369Z,12.10
2023-03-28T17:49:33.047Z,12.20
2023-03-28T17:52:06.634Z,12.20
2023-03-28T17:54:37.575Z,12.20
2023-03-28T17:57:12.107Z,12.30
2023-03-28T17:59:42.869Z,12.40
2023-03-28T18:02:14.354Z,12.40
2023-03-28T18:04:45.252Z,12.60
2023-03-28T18:07:18.355Z,12.70
2023-03-28T18:09:50.026Z,12.80
2023-03-28T18:12:22.120Z,13.00
2023-03-28T18:14:53.775Z,13.00
2023-03-28T18:17:25.495Z,13.00
2023-03-28T18:19:56.787Z,13.20
2023-03-28T18:22:31.049Z,13.20
2023-03-28T18:25:05.071Z,13.20
2023-03-28T18:27:36.405Z,13.40
2023-03-28T18:30:08.954Z,13.40
2023-03-28T18:32:40.563Z,13.40
2023-03-28T18:35:12.959Z,13.40
2023-03-28T18:37:47.912Z,13.50
2023-03-28T18:40:19.189Z,13.50
2023-03-28T18:42:51.673Z,13.50
2023-03-28T18:45:22.645Z,13.60
2023-03-28T18:47:54.514Z,13.70
2023-03-28T18:50:25.837Z,13.80
2023-03-28T18:52:59.110Z,13.90
2023-03-28T18:55:30.343Z,13.90
2023-03-28T18:58:03.310Z,14.00
2023-03-28T19:00:34.093Z,14.10
2023-03-28T19:03:05.410Z,14.10
2023-03-28T19:05:38.057Z,14.10
2023-03-28T19:08:12.021Z,14.30
2023-03-28T19:10:48.812Z,14.20
2023-03-28T19:13:19.715Z,14.10
2023-03-28T19:15:50.978Z,14.20
2023-03-28T19:18:22.470Z,14.20
2023-03-28T19:20:55.771Z,14.40
2023-03-28T19:23:30.425Z,14.30
2023-03-28T19:26:01.695Z,14.40
2023-03-28T19:28:33.053Z,14.50
2023-03-28T19:31:06.386Z,14.70
2023-03-28T19:33:41.602Z,14.60
2023-03-28T19:36:13.646Z,14.50
2023-03-28T19:38:46.945Z,14.60
2023-03-28T19:41:22.166Z,14.50
2023-03-28T19:43:54.190Z,14.40
2023-03-28T19:46:33.182Z,14.40
2023-03-28T19:49:06.705Z,14.40
2023-03-28T19:51:37.757Z,14.50
2023-03-28T19:54:10.463Z,14.50
2023-03-28T19:56:41.213Z,14.50
2023-03-28T19:59:27.114Z,14.60
2023-03-28T20:01:58.994Z,14.70
2023-03-28T20:04:30.478Z,14.80
2023-03-28T20:07:01.651Z,15.00
2023-03-28T20:09:35.574Z,15.20
2023-03-28T20:12:07.738Z,15.40
2023-03-28T20:14:39.702Z,15.60
2023-03-28T20:17:10.593Z,15.80
2023-03-28T20:19:44.457Z,15.90
2023-03-28T20:22:19.020Z,16.00
2023-03-28T20:24:51.966Z,15.90
2023-03-28T20:27:25.685Z,15.80
2023-03-28T20:29:56.691Z,15.80
2023-03-28T20:32:28.043Z,15.80
2023-03-28T20:34:59.824Z,15.90
2023-03-28T20:37:30.714Z,16.00
2023-03-28T20:40:11.243Z,15.80
2023-03-28T20:42:43.320Z,15.90
2023-03-28T20:45:23.238Z,15.80
2023-03-28T20:47:59.477Z,15.90
2023-03-28T20:50:34.825Z,15.90
2023-03-28T20:53:07.235Z,16.00
2023-03-28T20:55:39.713Z,15.90
2023-03-28T20:58:11.290Z,15.90
2023-03-28T21:00:44.443Z,15.90
2023-03-28T21:03:16.692Z,16.10
2023-03-28T21:05:48.953Z,16.10
2023-03-28T21:08:23.908Z,16.10
2023-03-28T21:10:59.998Z,16.00
2023-03-28T21:13:31.972Z,16.00
2023-03-28T21:16:02.722Z,15.90
2023-03-28T21:18:35.397Z,15.70
2023-03-28T21:21:07.955Z,15.70
2023-03-28T21:23:39.942Z,15.70
2023-03-28T21:26:14.708Z,15.60
2023-03-28T21:28:45.342Z,15.80
2023-03-28T21:31:18.776Z,16.00
2023-03-28T21:33:50.091Z,16.10
2023-03-28T21:36:22.305Z,16.00
2023-03-28T21:38:53.235Z,16.00
2023-03-28T21:41:28.190Z,15.80
2023-03-28T21:43:59.410Z,15.80
2023-03-28T21:46:30.378Z,15.60
2023-03-28T21:49:01.887Z,15.50
2023-03-28T21:51:34.503Z,15.50
2023-03-28T21:54:06.076Z,15.50
2023-03-28T21:56:39.365Z,15.60
2023-03-28T21:59:13.208Z,15.60
2023-03-28T22:01:43.982Z,15.60
2023-03-28T22:04:15.521Z,15.70
2023-03-28T22:06:46.625Z,15.70
2023-03-28T22:09:18.148Z,15.70
2023-03-28T22:11:51.546Z,15.70
2023-03-28T22:14:23.244Z,15.70
2023-03-28T22:16:54.910Z,15.60
2023-03-28T22:19:26.099Z,15.60
2023-03-28T22:21:57.746Z,15.60
2023-03-28T22:24:29.469Z,15.60
2023-03-28T22:27:01.992Z,15.60
2023-03-28T22:29:34.521Z,15.70
2023-03-28T22:32:06.001Z,15.80
2023-03-28T22:34:38.259Z,15.80
2023-03-28T22:37:09.647Z,15.80
2023-03-28T22:39:41.166Z,15.60
2023-03-28T22:42:14.249Z,15.50
2023-03-28T22:44:45.931Z,15.60
2023-03-28T22:47:18.955Z,15.50
2023-03-28T22:49:49.885Z,15.40
2023-03-28T22:52:21.683Z,15.30
2023-03-28T22:54:53.807Z,15.40
2023-03-28T22:57:26.442Z,15.40
2023-03-28T22:59:57.725Z,15.30
2023-03-28T23:02:29.172Z,15.10
2023-03-28T23:05:00.784Z,15.10
2023-03-28T23:07:32.408Z,15.10
2023-03-28T23:10:03.449Z,15.00
2023-03-28T23:12:36.315Z,15.10
2023-03-28T23:15:07.734Z,15.00
2023-03-28T23:17:39.547Z,14.80
2023-03-28T23:20:13.269Z,14.80
2023-03-28T23:22:45.357Z,14.80
2023-03-28T23:25:18.017Z,14.70
2023-03-28T23:27:51.574Z,14.60
2023-03-28T23:30:23.490Z,14.50
2023-03-28T23:32:54.393Z,14.40
2023-03-28T23:35:25.130Z,14.30
2023-03-28T23:37:56.045Z,14.20
2023-03-28T23:40:28.942Z,14.20
2023-03-28T23:43:02.409Z,14.20
2023-03-28T23:45:33.762Z,14.00
2023-03-28T23:48:05.305Z,14.00
2023-03-28T23:50:36.085Z,13.90
2023-03-28T23:53:09.644Z,13.80
2023-03-28T23:55:40.937Z,13.80
2023-03-28T23:58:14.528Z,13.80
